Time;durP1;ratioP1;P1;durP2;ratioP2;P2;SDS_P1;SDS_P2;PMS_P1;PMS_P2;Temp;Humidity;BMP_temperature;BMP_pressure;BME280_temperature;BME280_humidity;BME280_pressure;Samples;Min_cycle;Max_cycle;Signal;HPM_P1;HPM_P2
2021/05/25 00:01:17;;;;;;;2.05;0.60;;;;;;;19.44;51.81;100176.72;4931555;29;20031;-76
2021/05/25 00:03:43;;;;;;;1.58;0.50;;;;;;;19.40;52.23;100170.84;4907056;29;20028;-76
2021/05/25 00:06:08;;;;;;;1.13;0.40;;;;;;;19.44;52.09;100172.22;4929804;29;20086;-76
2021/05/25 00:08:33;;;;;;;1.75;0.60;;;;;;;19.44;51.86;100174.88;4931376;29;20055;-76
2021/05/25 00:10:59;;;;;;;3.60;1.02;;;;;;;19.41;52.31;100168.00;4931176;29;20048;-76
2021/05/25 00:13:24;;;;;;;1.35;0.40;;;;;;;19.40;52.26;100158.34;4929973;29;20058;-76
2021/05/25 00:15:53;;;;;;;2.13;0.52;;;;;;;19.42;51.98;100167.06;4909723;29;20110;-76
2021/05/25 00:18:18;;;;;;;1.00;0.30;;;;;;;19.41;51.71;100167.19;4930330;29;20024;-76
2021/05/25 00:20:44;;;;;;;1.40;0.40;;;;;;;19.40;52.13;100165.50;4931033;29;20039;-75
2021/05/25 00:23:09;;;;;;;0.82;0.35;;;;;;;19.38;51.74;100163.00;4930835;29;20031;-75
2021/05/25 00:25:35;;;;;;;1.60;0.77;;;;;;;19.40;52.00;100165.50;4929014;29;20058;-76
2021/05/25 00:28:00;;;;;;;2.47;0.52;;;;;;;19.42;52.16;100167.06;4931057;29;20111;-76
2021/05/25 00:30:25;;;;;;;0.95;0.32;;;;;;;19.40;51.83;100163.69;4930930;29;20031;-76
2021/05/25 00:32:51;;;;;;;2.05;0.43;;;;;;;19.41;52.03;100160.03;4913576;29;20443;-76
2021/05/25 00:35:16;;;;;;;0.57;0.20;;;;;;;19.40;51.70;100150.34;4928644;29;20030;-76
2021/05/25 00:37:41;;;;;;;1.25;0.50;;;;;;;19.40;51.89;100149.50;4930977;29;20019;-77
2021/05/25 00:40:08;;;;;;;1.45;0.30;;;;;;;19.41;51.74;100137.88;4930155;29;20031;-75
2021/05/25 00:42:35;;;;;;;0.25;0.20;;;;;;;19.41;51.73;100140.53;4930774;29;20035;-76
2021/05/25 00:45:00;;;;;;;0.63;0.30;;;;;;;19.39;52.07;100135.34;4911777;29;20091;-75
2021/05/25 00:47:27;;;;;;;0.65;0.32;;;;;;;19.40;51.84;100144.19;4926316;29;20475;-76
2021/05/25 00:49:53;;;;;;;0.60;0.30;;;;;;;19.37;51.74;100133.81;4920225;29;20027;-76
2021/05/25 00:52:19;;;;;;;2.70;0.80;;;;;;;19.39;51.83;100127.34;4930225;29;20071;-75
2021/05/25 00:54:44;;;;;;;2.10;0.38;;;;;;;19.38;51.64;100131.03;4928521;29;20530;-76
2021/05/25 00:57:09;;;;;;;1.33;0.40;;;;;;;19.38;51.72;100131.03;4930042;29;20495;-76
2021/05/25 00:59:35;;;;;;;1.58;0.30;;;;;;;19.40;51.77;100136.19;4925435;29;20059;-76
2021/05/25 01:02:00;;;;;;;1.20;0.30;;;;;;;19.40;52.13;100138.84;4919764;29;20034;-75
2021/05/25 01:04:26;;;;;;;2.33;0.57;;;;;;;19.37;51.60;100128.47;4912854;29;20475;-76
2021/05/25 01:06:51;;;;;;;1.15;0.50;;;;;;;19.38;52.02;100131.03;4929994;29;20019;-76
2021/05/25 01:09:17;;;;;;;0.60;0.30;;;;;;;19.36;51.96;100124.97;4926198;29;20035;-76
2021/05/25 01:11:43;;;;;;;1.73;0.55;;;;;;;19.37;51.60;100125.81;4918050;29;20028;-77
2021/05/25 01:14:09;;;;;;;0.82;0.40;;;;;;;19.37;51.75;100129.31;4925554;29;20051;-77
2021/05/25 01:16:35;;;;;;;0.70;0.30;;;;;;;19.36;51.59;100129.47;4895399;29;20020;-76
2021/05/25 01:19:00;;;;;;;0.77;0.40;;;;;;;19.37;51.89;100129.31;4922375;29;20391;-76
2021/05/25 01:21:26;;;;;;;2.95;0.50;;;;;;;19.37;51.60;100131.13;4929700;29;20118;-76
2021/05/25 01:23:51;;;;;;;0.70;0.22;;;;;;;19.37;51.58;100131.97;4929610;29;20043;-75
2021/05/25 01:26:18;;;;;;;2.60;0.50;;;;;;;19.35;51.92;100130.44;4929249;29;20051;-76
2021/05/25 01:28:47;;;;;;;1.38;0.60;;;;;;;19.38;52.03;100130.16;4925833;29;20446;-76
2021/05/25 01:31:13;;;;;;;0.90;0.43;;;;;;;19.36;51.74;100129.47;4913091;29;20444;-75
2021/05/25 01:33:39;;;;;;;0.80;0.30;;;;;;;19.35;51.35;100130.44;4929340;29;20118;-77
2021/05/25 01:36:08;;;;;;;0.40;0.28;;;;;;;19.34;51.75;100129.59;4929730;29;20118;-76
2021/05/25 01:38:36;;;;;;;1.27;0.30;;;;;;;19.36;51.87;100122.31;4917914;29;20395;-77
2021/05/25 01:41:03;;;;;;;1.08;0.40;;;;;;;19.36;52.13;100124.16;4927868;29;20027;-76
2021/05/25 01:43:28;;;;;;;0.88;0.30;;;;;;;19.33;51.52;100125.25;4929349;29;20472;-76
2021/05/25 01:45:54;;;;;;;0.63;0.30;;;;;;;19.32;51.93;100128.09;4928166;29;20043;-76
2021/05/25 01:48:19;;;;;;;1.17;0.30;;;;;;;19.34;52.02;100131.44;4928779;29;20028;-76
2021/05/25 01:50:44;;;;;;;0.40;0.20;;;;;;;19.36;51.76;100137.47;4912755;29;20028;-76
2021/05/25 01:53:12;;;;;;;1.45;0.30;;;;;;;19.33;51.86;100129.75;4929375;29;20120;-76
2021/05/25 01:55:43;;;;;;;0.98;0.40;;;;;;;19.35;52.08;100141.97;4921038;29;20505;-76
2021/05/25 01:58:14;;;;;;;1.27;0.52;;;;;;;19.35;51.83;100144.63;4923901;29;20039;-76
2021/05/25 02:00:45;;;;;;;0.45;0.30;;;;;;;19.34;52.05;100142.91;4929381;29;20126;-76
2021/05/25 02:03:10;;;;;;;2.05;0.60;;;;;;;19.32;51.91;100130.75;4928297;29;20078;-77
2021/05/25 02:05:36;;;;;;;1.33;0.32;;;;;;;19.35;52.01;100144.63;4927634;29;20423;-75
2021/05/25 02:08:02;;;;;;;0.90;0.40;;;;;;;19.34;51.96;100144.75;4912745;29;20031;-76
2021/05/25 02:10:35;;;;;;;0.88;0.30;;;;;;;19.35;51.92;100147.28;4929276;29;20038;-76
2021/05/25 02:13:04;;;;;;;0.68;0.28;;;;;;;19.35;51.66;100141.97;4928972;29;20030;-76
2021/05/25 02:15:30;;;;;;;1.17;0.30;;;;;;;19.34;51.81;100140.25;4912224;29;20570;-76
2021/05/25 02:17:56;;;;;;;1.25;0.40;;;;;;;19.36;51.67;100140.13;4911878;29;20055;-76
2021/05/25 02:20:22;;;;;;;1.67;0.30;;;;;;;19.34;51.93;100134.91;4911888;29;20038;-76
2021/05/25 02:22:47;;;;;;;0.68;0.20;;;;;;;19.31;51.74;100121.88;4929360;29;20023;-76
2021/05/25 02:25:13;;;;;;;0.95;0.30;;;;;;;19.33;51.72;100125.25;4912890;29;20031;-76
2021/05/25 02:27:38;;;;;;;0.45;0.25;;;;;;;19.34;51.82;100110.09;4927359;29;20037;-76
2021/05/25 02:30:05;;;;;;;0.80;0.32;;;;;;;19.33;51.63;100111.94;4928266;29;20032;-76
2021/05/25 02:32:30;;;;;;;0.45;0.30;;;;;;;19.35;51.89;100122.44;4927593;29;20087;-76
2021/05/25 02:34:55;;;;;;;1.10;0.30;;;;;;;19.34;51.52;100124.28;4928051;29;20026;-76
2021/05/25 02:37:21;;;;;;;0.73;0.30;;;;;;;19.32;51.67;100114.75;4926688;29;20034;-76
2021/05/25 02:39:46;;;;;;;2.78;0.63;;;;;;;19.34;51.43;100118.09;4911032;29;20035;-76
2021/05/25 02:42:12;;;;;;;0.38;0.17;;;;;;;19.33;51.39;100114.59;4928118;29;20030;-76
2021/05/25 02:44:37;;;;;;;0.73;0.20;;;;;;;19.33;51.94;100108.44;4928060;29;20043;-76
2021/05/25 02:47:02;;;;;;;0.75;0.30;;;;;;;19.31;51.79;100108.56;4928641;29;20479;-76
2021/05/25 02:49:28;;;;;;;0.40;0.20;;;;;;;19.31;51.61;100100.56;4922828;29;20524;-76
2021/05/25 02:51:53;;;;;;;0.40;0.30;;;;;;;19.31;51.93;100103.22;4929255;29;20110;-76
2021/05/25 02:54:18;;;;;;;0.70;0.32;;;;;;;19.31;51.40;100111.22;4927358;29;20307;-75
2021/05/25 02:56:44;;;;;;;0.55;0.30;;;;;;;19.33;51.38;100122.59;4911547;29;20023;-75
2021/05/25 02:59:09;;;;;;;1.23;0.40;;;;;;;19.32;51.29;100123.59;4927380;29;20035;-76
2021/05/25 03:01:34;;;;;;;0.50;0.40;;;;;;;19.31;51.74;100116.56;4928675;29;20561;-76
2021/05/25 03:04:00;;;;;;;1.10;0.40;;;;;;;19.29;51.48;100107.88;4928005;29;20120;-75
2021/05/25 03:06:26;;;;;;;0.68;0.43;;;;;;;19.29;51.81;100110.53;4928423;29;20028;-76
2021/05/25 03:08:51;;;;;;;1.27;0.30;;;;;;;19.30;51.65;100120.22;4923600;29;20032;-76
2021/05/25 03:11:16;;;;;;;0.75;0.30;;;;;;;19.30;51.68;100125.53;4909221;29;20483;-76
2021/05/25 03:13:42;;;;;;;0.47;0.30;;;;;;;19.31;51.59;100115.72;4917665;29;20051;-76
2021/05/25 03:16:07;;;;;;;0.65;0.30;;;;;;;19.31;51.69;100129.03;4928333;29;20024;-76
2021/05/25 03:18:32;;;;;;;0.93;0.30;;;;;;;19.30;51.74;100127.38;4930352;29;20262;-76
2021/05/25 03:20:58;;;;;;;0.55;0.20;;;;;;;19.30;51.46;100127.38;4930988;29;20035;-76
2021/05/25 03:23:23;;;;;;;0.47;0.40;;;;;;;19.29;51.59;100125.69;4931770;29;20030;-76
2021/05/25 03:25:50;;;;;;;0.82;0.30;;;;;;;19.29;51.52;100129.19;4932120;29;20295;-76
2021/05/25 03:28:16;;;;;;;0.88;0.40;;;;;;;19.28;51.29;100126.66;4930228;29;20023;-76
2021/05/25 03:30:43;;;;;;;1.05;0.30;;;;;;;19.29;51.38;100139.03;4930718;29;20038;-76
2021/05/25 03:33:08;;;;;;;0.32;0.20;;;;;;;19.30;51.36;100141.53;4929373;29;20119;-76
2021/05/25 03:35:34;;;;;;;0.50;0.20;;;;;;;19.28;51.49;100134.66;4914223;29;20571;-76
2021/05/25 03:37:59;;;;;;;0.73;0.30;;;;;;;19.29;51.51;100147.00;4914854;29;20031;-76
2021/05/25 03:40:25;;;;;;;0.75;0.32;;;;;;;19.30;51.92;100148.69;4930349;29;20028;-76
2021/05/25 03:42:52;;;;;;;0.65;0.25;;;;;;;19.29;51.83;100155.84;4932029;29;20020;-76
2021/05/25 03:45:18;;;;;;;0.68;0.30;;;;;;;19.29;51.65;100150.50;4929879;29;20672;-76
2021/05/25 03:47:44;;;;;;;0.40;0.30;;;;;;;19.28;51.23;100156.84;4931126;29;20035;-76
2021/05/25 03:50:11;;;;;;;0.60;0.30;;;;;;;19.26;51.66;100158.78;4931054;29;20034;-76
2021/05/25 03:52:42;;;;;;;0.28;0.20;;;;;;;19.27;51.60;100149.81;4926602;29;20036;-76
2021/05/25 03:55:18;;;;;;;1.15;0.40;;;;;;;19.29;51.38;100150.50;4913090;29;20027;-76
2021/05/25 04:00:09;;;;;;;0.20;0.20;;;;;;;19.27;51.62;100146.31;4931595;29;20123;-77
2021/05/25 04:02:35;;;;;;;0.80;0.20;;;;;;;19.26;51.88;100149.97;4929339;29;20036;-76
2021/05/25 04:05:00;;;;;;;0.82;0.50;;;;;;;19.27;52.05;100144.47;4930044;29;20034;-76
2021/05/25 04:07:26;;;;;;;0.32;0.30;;;;;;;19.29;51.35;100149.69;4921847;29;20024;-76
2021/05/25 04:09:51;;;;;;;1.00;0.28;;;;;;;19.28;51.66;100151.50;4917182;29;20387;-76
2021/05/25 04:12:16;;;;;;;0.28;0.28;;;;;;;19.25;51.58;100151.78;4930407;29;20483;-76
2021/05/25 04:14:42;;;;;;;1.05;0.30;;;;;;;19.28;51.66;100156.84;4931409;29;20040;-77
2021/05/25 04:17:07;;;;;;;0.47;0.20;;;;;;;19.27;51.82;100163.13;4931090;29;20108;-75
2021/05/25 04:19:32;;;;;;;0.75;0.28;;;;;;;19.26;51.77;100158.78;4930717;29;20367;-76
2021/05/25 04:21:57;;;;;;;0.40;0.13;;;;;;;19.27;51.23;100162.28;4930419;29;20023;-76
2021/05/25 04:24:23;;;;;;;0.35;0.30;;;;;;;19.27;51.69;100167.63;4912628;29;20056;-76
2021/05/25 04:26:48;;;;;;;0.85;0.32;;;;;;;19.26;51.40;100169.44;4912594;29;20047;-75
2021/05/25 04:29:13;;;;;;;0.77;0.40;;;;;;;19.25;51.13;100165.09;4930647;29;20126;-76
2021/05/25 04:31:39;;;;;;;0.63;0.30;;;;;;;19.26;51.75;100163.28;4930355;29;20454;-75
2021/05/25 04:34:04;;;;;;;0.55;0.30;;;;;;;19.28;51.42;100166.63;4919756;29;20079;-76
2021/05/25 04:36:29;;;;;;;1.20;0.30;;;;;;;19.23;51.30;100161.72;4927181;29;20035;-76
2021/05/25 04:38:55;;;;;;;0.38;0.20;;;;;;;19.27;51.52;100172.94;4930474;29;20107;-76
2021/05/25 04:41:20;;;;;;;0.38;0.20;;;;;;;19.25;51.90;100172.22;4945702;29;21674;-75
2021/05/25 04:43:46;;;;;;;0.50;0.30;;;;;;;19.24;51.09;100176.72;4935779;29;20473;-76
2021/05/25 04:46:11;;;;;;;0.40;0.30;;;;;;;19.26;51.37;100176.59;4946221;29;20024;-76
2021/05/25 04:48:36;;;;;;;0.60;0.30;;;;;;;19.29;51.20;100189.66;4930953;29;20557;-78
2021/05/25 04:51:02;;;;;;;0.65;0.50;;;;;;;19.29;51.68;100190.47;4934896;28;20049;-76
2021/05/25 04:53:27;;;;;;;5.43;0.40;;;;;;;19.28;51.68;100182.59;4940294;29;20106;-78
2021/05/25 04:55:52;;;;;;;24.08;6.10;;;;;;;19.30;53.72;100191.31;4933182;29;20031;-77
2021/05/25 04:58:18;;;;;;;30.88;6.28;;;;;;;19.30;54.87;100189.50;4926951;29;20676;-77
2021/05/25 05:00:44;;;;;;;19.95;5.47;;;;;;;19.31;54.10;100190.31;4928013;29;20212;-77
2021/05/25 05:03:10;;;;;;;18.02;5.28;;;;;;;19.30;53.88;100186.81;4930197;29;20483;-77
2021/05/25 05:05:35;;;;;;;18.23;5.25;;;;;;;19.30;54.12;100186.81;4918856;29;20036;-76
2021/05/25 05:08:00;;;;;;;29.13;4.60;;;;;;;19.29;53.13;100187.81;4919947;29;20031;-75
2021/05/25 05:10:26;;;;;;;12.70;2.90;;;;;;;19.30;52.78;100189.50;4930198;29;20031;-74
2021/05/25 05:12:51;;;;;;;18.00;3.20;;;;;;;19.32;52.71;100190.19;4929664;29;20061;-75
2021/05/25 05:15:17;;;;;;;16.02;2.88;;;;;;;19.31;51.74;100193.81;4908380;29;20099;-75
2021/05/25 05:17:43;;;;;;;13.02;1.70;;;;;;;19.34;51.34;100206.88;4922784;29;20107;-75
2021/05/25 05:20:10;;;;;;;8.25;1.60;;;;;;;19.35;51.41;100199.72;4928417;29;20038;-74
2021/05/25 05:22:36;;;;;;;6.05;1.58;;;;;;;19.33;51.40;100210.53;4928869;29;20514;-75
2021/05/25 05:25:02;;;;;;;6.88;1.42;;;;;;;19.31;51.18;100198.31;4928874;29;20027;-74
2021/05/25 05:27:27;;;;;;;5.47;1.15;;;;;;;19.34;51.05;100206.88;4927611;29;20036;-75
2021/05/25 05:29:52;;;;;;;4.57;1.80;;;;;;;19.34;50.36;100204.22;4911290;29;20042;-76
2021/05/25 05:32:18;;;;;;;7.53;1.42;;;;;;;19.34;50.58;100203.38;4928095;29;20028;-74
2021/05/25 05:34:44;;;;;;;4.85;1.20;;;;;;;19.32;50.38;100195.53;4925577;29;20032;-74
2021/05/25 05:37:09;;;;;;;4.88;1.20;;;;;;;19.33;50.58;100202.53;4927814;29;20360;-74
2021/05/25 05:39:34;;;;;;;4.60;0.98;;;;;;;19.32;49.95;100202.69;4923589;29;20064;-75
2021/05/25 05:41:59;;;;;;;3.05;0.90;;;;;;;19.33;49.65;100212.34;4907723;29;20031;-74
2021/05/25 05:44:25;;;;;;;3.80;0.85;;;;;;;19.34;49.76;100212.19;4564650;29;9999764;-75
2021/05/25 05:46:50;;;;;;;2.85;0.57;;;;;;;19.33;49.81;100207.88;4907874;29;20039;-75
2021/05/25 05:49:16;;;;;;;3.50;1.27;;;;;;;19.35;49.89;100210.38;4924964;29;20163;-75
2021/05/25 05:51:41;;;;;;;2.22;0.70;;;;;;;19.34;49.66;100211.38;4907681;29;20269;-75
2021/05/25 05:54:07;;;;;;;1.92;0.63;;;;;;;19.34;49.41;100212.19;4917750;29;20130;-75
2021/05/25 05:56:33;;;;;;;4.88;0.63;;;;;;;19.34;49.29;100209.53;4924963;29;20016;-76
2021/05/25 05:58:58;;;;;;;3.70;0.80;;;;;;;19.34;48.90;100214.03;4925043;29;20031;-75
2021/05/25 06:01:24;;;;;;;2.65;0.98;;;;;;;19.33;49.00;100209.69;4925158;29;20086;-75
2021/05/25 06:03:49;;;;;;;3.70;1.00;;;;;;;19.33;48.72;100209.69;4926702;29;20035;-75
2021/05/25 06:06:15;;;;;;;2.75;0.70;;;;;;;19.34;48.56;100222.03;4908578;29;20102;-76
2021/05/25 06:08:41;;;;;;;2.17;0.80;;;;;;;19.34;48.21;100219.34;4894872;29;20043;-75
2021/05/25 06:11:07;;;;;;;2.10;0.82;;;;;;;19.34;48.58;100217.53;4928229;29;20499;-76
2021/05/25 06:13:32;;;;;;;4.38;0.80;;;;;;;19.33;48.79;100212.34;4910939;29;20103;-75
2021/05/25 06:16:02;;;;;;;2.17;0.73;;;;;;;19.33;48.54;100207.88;4927489;29;20520;-75
2021/05/25 06:18:28;;;;;;;1.88;0.77;;;;;;;19.33;49.08;100207.88;4927813;29;20039;-75
2021/05/25 06:20:53;;;;;;;3.65;0.60;;;;;;;19.34;48.55;100206.88;4927262;29;20122;-75
2021/05/25 06:23:19;;;;;;;1.52;0.60;;;;;;;19.36;48.95;100209.41;4926837;29;20115;-75
2021/05/25 06:25:45;;;;;;;2.95;0.75;;;;;;;19.37;48.95;100206.59;4921551;29;20034;-75
2021/05/25 06:28:10;;;;;;;2.20;0.70;;;;;;;19.35;48.89;100219.22;4915559;29;20035;-75
2021/05/25 06:30:37;;;;;;;1.75;0.60;;;;;;;19.37;49.17;100211.09;4914601;29;20573;-74
2021/05/25 06:33:02;;;;;;;2.03;0.60;;;;;;;19.37;48.64;100213.75;4920025;29;20514;-74
2021/05/25 06:35:27;;;;;;;1.08;0.60;;;;;;;19.34;48.72;100203.38;4921654;29;20051;-75
2021/05/25 06:37:53;;;;;;;2.22;0.65;;;;;;;19.36;49.10;100206.75;4927937;29;20130;-75
2021/05/25 06:40:18;;;;;;;1.25;0.52;;;;;;;19.39;48.78;100212.63;4926355;29;20394;-75
2021/05/25 06:42:43;;;;;;;0.80;0.40;;;;;;;19.39;48.90;100212.63;4926976;29;20039;-75
2021/05/25 06:45:10;;;;;;;1.10;0.50;;;;;;;19.39;49.01;100220.63;4920090;29;20365;-76
2021/05/25 06:47:38;;;;;;;1.80;0.80;;;;;;;19.40;48.83;100216.13;4907716;29;20376;-75
2021/05/25 06:50:05;;;;;;;1.38;0.50;;;;;;;19.40;48.89;100219.63;4909949;29;20046;-75
2021/05/25 06:52:30;;;;;;;1.38;0.60;;;;;;;19.40;49.13;100224.13;4928848;29;20028;-75
2021/05/25 06:54:57;;;;;;;1.38;0.60;;;;;;;19.41;49.01;100228.47;4930345;29;20030;-75
2021/05/25 06:57:22;;;;;;;2.10;0.85;;;;;;;19.40;48.74;100224.97;4924490;29;20040;-75
2021/05/25 06:59:48;;;;;;;3.25;0.60;;;;;;;19.41;48.88;100231.13;4913248;29;20438;-75
2021/05/25 07:02:13;;;;;;;1.92;0.65;;;;;;;19.41;49.15;100231.97;4930962;29;20031;-76
2021/05/25 07:04:39;;;;;;;2.00;0.80;;;;;;;19.41;48.93;100237.31;4929321;29;20495;-75
2021/05/25 07:07:04;;;;;;;1.98;0.60;;;;;;;19.44;48.89;100246.00;4930293;29;20035;-75
2021/05/25 07:09:30;;;;;;;1.55;0.57;;;;;;;19.41;48.73;100236.47;4914442;29;20090;-75
2021/05/25 07:11:55;;;;;;;1.70;0.65;;;;;;;19.44;48.60;100241.53;4930748;29;20059;-75
2021/05/25 07:14:20;;;;;;;1.77;0.70;;;;;;;19.43;48.56;100245.19;4931105;29;20052;-75
2021/05/25 07:16:46;;;;;;;1.90;0.68;;;;;;;19.44;49.05;100252.19;4929480;29;20024;-76
2021/05/25 07:19:11;;;;;;;1.15;0.40;;;;;;;19.42;48.91;100244.34;4913470;29;20063;-75
2021/05/25 07:21:36;;;;;;;1.95;0.70;;;;;;;19.45;48.47;100253.03;4930472;29;20513;-75
2021/05/25 07:24:02;;;;;;;1.30;0.40;;;;;;;19.46;48.60;100258.22;4930916;29;20115;-75
2021/05/25 07:26:27;;;;;;;1.33;0.50;;;;;;;19.46;48.96;100257.38;4930955;29;20086;-74
2021/05/25 07:28:53;;;;;;;1.73;0.38;;;;;;;19.47;49.11;100269.72;4913723;29;20113;-75
2021/05/25 07:31:18;;;;;;;1.27;0.40;;;;;;;19.46;48.68;100254.72;4929673;29;20090;-75
2021/05/25 07:33:45;;;;;;;4.35;0.50;;;;;;;19.47;48.97;100262.56;4930057;29;20494;-76
2021/05/25 07:36:11;;;;;;;2.25;0.55;;;;;;;19.45;48.89;100267.19;4930371;29;20027;-75
2021/05/25 07:38:36;;;;;;;1.90;0.82;;;;;;;19.47;48.79;100275.88;4930199;29;20030;-75
2021/05/25 07:41:02;;;;;;;1.40;0.50;;;;;;;19.47;48.89;100273.22;4929555;29;20386;-75
2021/05/25 07:43:27;;;;;;;2.85;0.52;;;;;;;19.47;48.84;100278.56;4921619;29;20027;-75
2021/05/25 07:45:52;;;;;;;0.77;0.50;;;;;;;19.48;48.93;100272.22;4930740;29;20111;-74
2021/05/25 07:48:18;;;;;;;0.95;0.50;;;;;;;19.49;48.79;100273.09;4928957;29;20049;-75
2021/05/25 07:50:43;;;;;;;1.63;0.52;;;;;;;19.48;48.62;100269.56;4913046;29;20032;-74
2021/05/25 07:53:09;;;;;;;1.15;0.40;;;;;;;19.49;48.84;100267.78;4913742;29;20476;-74
2021/05/25 07:55:34;;;;;;;0.90;0.43;;;;;;;19.50;48.84;100272.94;4924426;29;20115;-74
2021/05/25 07:58:00;;;;;;;0.95;0.40;;;;;;;19.49;48.85;100273.09;4557640;29;10000507;-74
2021/05/25 08:00:26;;;;;;;2.35;0.50;;;;;;;19.50;48.68;100272.13;4919883;29;20103;-74
2021/05/25 08:02:53;;;;;;;1.75;0.63;;;;;;;19.50;48.53;100278.28;4927422;29;20443;-74
2021/05/25 08:05:19;;;;;;;1.35;0.40;;;;;;;19.52;48.54;100283.47;4928568;29;20035;-75
2021/05/25 08:07:44;;;;;;;2.85;0.43;;;;;;;19.49;48.69;100292.59;4921362;29;20044;-74
2021/05/25 08:10:12;;;;;;;1.17;0.40;;;;;;;19.52;48.75;100296.78;4927872;29;20047;-74
2021/05/25 08:12:37;;;;;;;1.63;0.95;;;;;;;19.49;48.78;100286.44;4584837;29;9999647;-75
2021/05/25 08:15:05;;;;;;;1.75;0.60;;;;;;;19.51;48.44;100287.94;4905849;29;20039;-74
2021/05/25 08:20:18;;;;;;;1.27;0.50;;;;;;;19.49;48.91;100289.94;4926463;29;20518;-75
2021/05/25 08:22:48;;;;;;;1.88;0.40;;;;;;;19.52;48.76;100294.13;4912181;29;20637;-74
2021/05/25 08:25:15;;;;;;;2.92;0.70;;;;;;;19.51;48.77;100295.94;4908472;29;20338;-74
2021/05/25 08:27:40;;;;;;;0.73;0.40;;;;;;;19.50;48.83;100294.28;4925159;29;20035;-74
2021/05/25 08:30:07;;;;;;;0.93;0.30;;;;;;;19.50;48.79;100294.28;4924795;29;20605;-74
2021/05/25 08:32:32;;;;;;;2.33;0.80;;;;;;;19.51;48.94;100298.63;4920548;29;20028;-74
2021/05/25 08:34:57;;;;;;;1.85;0.50;;;;;;;19.49;49.14;100297.09;4918961;29;20094;-74
2021/05/25 08:37:23;;;;;;;1.92;0.57;;;;;;;19.50;48.35;100298.78;4916709;29;20130;-74
2021/05/25 08:39:48;;;;;;;0.70;0.40;;;;;;;19.47;48.61;100291.88;4917977;29;20024;-74
2021/05/25 08:42:13;;;;;;;1.73;0.50;;;;;;;19.48;48.77;100296.22;4925305;29;20114;-75
2021/05/25 08:44:39;;;;;;;0.85;0.43;;;;;;;19.47;48.46;100291.88;4914248;29;20103;-75
2021/05/25 08:47:05;;;;;;;1.30;0.50;;;;;;;19.50;48.77;100291.59;4906510;29;20578;-74
2021/05/25 08:49:32;;;;;;;2.03;0.60;;;;;;;19.51;48.67;100292.44;4902727;29;20036;-75
2021/05/25 08:51:57;;;;;;;1.38;0.50;;;;;;;19.50;48.40;100294.28;4916844;29;20565;-75
2021/05/25 08:54:23;;;;;;;0.77;0.45;;;;;;;19.50;48.59;100299.59;4907800;29;20044;-77
2021/05/25 08:56:48;;;;;;;2.67;0.57;;;;;;;19.50;48.92;100291.59;4921327;29;20068;-77
2021/05/25 08:59:13;;;;;;;2.15;0.38;;;;;;;19.53;49.10;100303.81;4911127;29;20035;-79
2021/05/25 09:01:39;;;;;;;0.63;0.30;;;;;;;19.51;48.66;100295.94;4915099;29;20063;-78
2021/05/25 09:04:07;;;;;;;1.30;0.40;;;;;;;19.49;48.82;100295.25;4913341;29;20816;-78
2021/05/25 09:06:42;;;;;;;1.73;0.50;;;;;;;19.49;48.85;100297.94;4914066;29;20476;-77
2021/05/25 09:09:12;;;;;;;2.33;0.47;;;;;;;19.53;48.64;100303.81;4925110;29;20205;-78
2021/05/25 09:12:05;;;;;;;0.45;0.30;;;;;;;19.52;49.29;100308.31;4927084;29;20079;-77
2021/05/25 09:14:34;;;;;;;0.95;0.38;;;;;;;19.50;49.01;100302.28;4919013;29;20452;-78
2021/05/25 09:17:21;;;;;;;0.75;0.35;;;;;;;19.51;49.26;100314.59;4910755;29;20074;-78
2021/05/25 09:19:49;;;;;;;1.20;0.40;;;;;;;19.52;49.02;100310.13;4910263;29;20148;-78
2021/05/25 09:22:34;;;;;;;0.73;0.40;;;;;;;19.44;49.16;100294.00;4910874;29;20027;-77
2021/05/25 09:25:18;;;;;;;1.50;0.52;;;;;;;19.51;49.40;100301.28;4926199;29;20557;-78
2021/05/25 09:27:47;;;;;;;0.98;0.43;;;;;;;19.49;49.36;100297.94;4926330;29;20028;-77
2021/05/25 09:30:23;;;;;;;1.02;0.43;;;;;;;19.51;49.32;100305.78;4927127;29;20042;-78
2021/05/25 09:33:00;;;;;;;2.05;0.60;;;;;;;19.49;49.19;100297.09;4910558;29;20036;-78
2021/05/25 09:35:31;;;;;;;1.05;0.30;;;;;;;19.50;49.00;100293.44;4911273;29;20032;-78
2021/05/25 09:37:58;;;;;;;0.73;0.40;;;;;;;19.50;48.68;100296.09;4881622;29;20035;-79
2021/05/25 09:40:26;;;;;;;1.58;0.50;;;;;;;19.50;49.64;100290.78;4890646;29;20479;-78
2021/05/25 09:42:54;;;;;;;0.90;0.40;;;;;;;19.47;49.47;100283.88;4927217;29;20039;-79
2021/05/25 09:45:20;;;;;;;0.90;0.40;;;;;;;19.50;49.06;100294.28;4922444;29;20035;-78
2021/05/25 09:47:53;;;;;;;1.25;0.50;;;;;;;19.50;49.22;100282.78;4879397;29;20027;-78
2021/05/25 09:50:23;;;;;;;1.00;0.30;;;;;;;19.50;49.55;100294.28;4910004;29;20032;-78
2021/05/25 09:53:03;;;;;;;0.85;0.40;;;;;;;19.49;49.31;100292.59;4906653;29;20024;-79
2021/05/25 09:55:28;;;;;;;0.57;0.30;;;;;;;19.49;48.95;100286.44;4898224;29;20114;-79
2021/05/25 09:57:55;;;;;;;0.82;0.40;;;;;;;19.49;49.26;100284.59;4924957;29;20158;-79
2021/05/25 10:00:28;;;;;;;1.45;0.45;;;;;;;19.50;49.16;100288.09;4927692;29;20027;-78
2021/05/25 10:03:13;;;;;;;1.63;0.50;;;;;;;19.48;49.51;100279.41;4927727;29;20031;-79
2021/05/25 10:05:39;;;;;;;0.32;0.30;;;;;;;19.50;49.43;100283.63;4925310;29;20028;-79
2021/05/25 10:08:04;;;;;;;2.17;0.40;;;;;;;19.50;49.25;100274.78;4929493;29;20041;-78
2021/05/25 10:10:31;;;;;;;0.98;0.40;;;;;;;19.48;49.23;100287.38;4929276;29;20039;-78
2021/05/25 10:12:57;;;;;;;1.88;0.43;;;;;;;19.48;49.27;100300.72;4928811;29;20529;-79
2021/05/25 10:15:24;;;;;;;0.55;0.40;;;;;;;19.51;49.23;100297.78;4929070;29;20044;-78
2021/05/25 10:18:10;;;;;;;1.67;0.50;;;;;;;19.48;49.57;100300.72;4913009;29;20035;-78
2021/05/25 10:20:35;;;;;;;0.73;0.30;;;;;;;19.50;49.19;100291.59;4893148;29;20499;-79
2021/05/25 10:23:01;;;;;;;0.63;0.32;;;;;;;19.49;49.42;100297.94;4910302;29;20065;-79
2021/05/25 10:25:30;;;;;;;0.50;0.40;;;;;;;19.49;49.13;100295.25;4915051;29;20034;-79
2021/05/25 10:27:57;;;;;;;;;;;;;;;19.49;49.51;100295.25;4911003;29;20122;-79
2021/05/25 10:30:25;;;;;;;1.08;0.50;;;;;;;19.50;49.19;100296.09;4927769;29;19910;-79
2021/05/25 10:33:06;;;;;;;0.90;0.30;;;;;;;19.50;49.26;100301.44;4929240;29;20031;-78
2021/05/25 10:35:46;;;;;;;0.40;0.30;;;;;;;19.50;49.52;100290.78;4929031;29;20118;-79
2021/05/25 10:38:11;;;;;;;0.50;0.30;;;;;;;19.48;49.17;100287.38;4926692;29;20211;-79
2021/05/25 10:40:41;;;;;;;1.25;0.40;;;;;;;19.49;49.21;100292.59;4929194;29;20031;-79
2021/05/25 10:43:31;;;;;;;0.85;0.40;;;;;;;19.50;49.21;100298.78;4913984;29;20099;-79
2021/05/25 10:46:12;;;;;;;0.82;0.30;;;;;;;19.49;49.70;100294.44;4909429;29;20476;-79
2021/05/25 10:49:14;;;;;;;1.25;0.40;;;;;;;19.48;49.76;100296.22;4909986;29;20075;-78
2021/05/25 10:51:49;;;;;;;0.43;0.32;;;;;;;19.49;49.83;100292.59;4888851;29;20115;-79
2021/05/25 10:54:22;;;;;;;1.85;0.60;;;;;;;19.48;49.79;100285.56;4926013;29;20110;-79
2021/05/25 10:56:47;;;;;;;0.60;0.30;;;;;;;19.48;49.67;100290.06;4928842;29;20028;-78
2021/05/25 10:59:14;;;;;;;0.93;0.40;;;;;;;19.46;49.57;100287.53;4928267;29;20027;-78
2021/05/25 11:01:40;;;;;;;0.38;0.30;;;;;;;19.46;49.37;100281.38;4911357;29;20060;-78
2021/05/25 11:04:07;;;;;;;0.73;0.30;;;;;;;19.48;49.48;100285.56;4926956;29;20028;-78
2021/05/25 11:06:32;;;;;;;0.63;0.30;;;;;;;19.47;49.45;100283.06;4928593;29;20544;-78
2021/05/25 11:09:20;;;;;;;1.15;0.35;;;;;;;19.49;49.36;100283.78;4928130;29;20031;-79
2021/05/25 11:11:46;;;;;;;1.98;0.40;;;;;;;19.46;49.40;100276.88;4929018;29;20031;-79
2021/05/25 11:14:14;;;;;;;0.60;0.30;;;;;;;19.48;49.69;100284.72;4926340;29;20043;-79
2021/05/25 11:16:40;;;;;;;0.55;0.30;;;;;;;19.48;49.54;100282.91;4929049;29;20024;-78
2021/05/25 11:19:19;;;;;;;0.60;0.20;;;;;;;19.48;49.30;100277.56;4929084;29;20031;-79
2021/05/25 11:24:34;;;;;;;1.10;0.30;;;;;;;19.48;49.65;100274.06;4925687;29;20043;-79
2021/05/25 11:27:01;;;;;;;0.90;0.30;;;;;;;19.48;49.78;100279.41;4928513;29;20039;-79
2021/05/25 11:29:28;;;;;;;1.60;1.05;;;;;;;19.47;49.52;100267.91;4928588;29;20058;-79
2021/05/25 11:31:57;;;;;;;0.60;0.32;;;;;;;19.46;49.57;100276.88;4928228;29;20031;-79